sensor_id;sensor_type;location;lat;lon;timestamp;temperature;humidity
19172;DHT22;9718;52.200;21.052;2022-08-21T00:01:53;21.80;99.90
19172;DHT22;9718;52.200;21.052;2022-08-21T00:04:21;21.70;99.90
19172;DHT22;9718;52.200;21.052;2022-08-21T00:06:55;21.70;99.90
19172;DHT22;9718;52.200;21.052;2022-08-21T00:09:22;21.60;99.90
19172;DHT22;9718;52.200;21.052;2022-08-21T00:11:49;21.40;99.90
19172;DHT22;9718;52.200;21.052;2022-08-21T00:14:16;21.40;99.90
19172;DHT22;9718;52.200;21.052;2022-08-21T00:16:44;21.40;99.90
19172;DHT22;9718;52.200;21.052;2022-08-21T00:19:11;21.40;99.90
19172;DHT22;9718;52.200;21.052;2022-08-21T00:21:38;21.30;99.90
19172;DHT22;9718;52.200;21.052;2022-08-21T00:24:11;21.30;99.90
19172;DHT22;9718;52.200;21.052;2022-08-21T00:26:38;21.30;99.90
19172;DHT22;9718;52.200;21.052;2022-08-21T00:29:05;21.30;99.90
19172;DHT22;9718;52.200;21.052;2022-08-21T00:31:32;21.20;99.90
19172;DHT22;9718;52.200;21.052;2022-08-21T00:34:00;21.20;99.90
19172;DHT22;9718;52.200;21.052;2022-08-21T00:36:27;21.20;99.90
19172;DHT22;9718;52.200;21.052;2022-08-21T00:38:55;21.20;99.90
19172;DHT22;9718;52.200;21.052;2022-08-21T00:41:22;21.20;99.90
19172;DHT22;9718;52.200;21.052;2022-08-21T00:44:11;21.10;99.90
19172;DHT22;9718;52.200;21.052;2022-08-21T00:46:39;21.10;99.90
19172;DHT22;9718;52.200;21.052;2022-08-21T00:49:08;21.10;99.90
19172;DHT22;9718;52.200;21.052;2022-08-21T00:51:57;21.00;99.90
19172;DHT22;9718;52.200;21.052;2022-08-21T00:54:28;20.90;99.90
19172;DHT22;9718;52.200;21.052;2022-08-21T00:57:01;20.80;99.90
19172;DHT22;9718;52.200;21.052;2022-08-21T00:59:33;20.80;99.90
19172;DHT22;9718;52.200;21.052;2022-08-21T01:02:01;20.80;99.90
19172;DHT22;9718;52.200;21.052;2022-08-21T01:04:29;20.80;99.90
19172;DHT22;9718;52.200;21.052;2022-08-21T01:06:56;20.70;99.90
19172;DHT22;9718;52.200;21.052;2022-08-21T01:09:23;20.60;99.90
19172;DHT22;9718;52.200;21.052;2022-08-21T01:11:50;20.60;99.90
19172;DHT22;9718;52.200;21.052;2022-08-21T01:14:18;20.50;99.90
19172;DHT22;9718;52.200;21.052;2022-08-21T01:16:49;20.40;99.90
19172;DHT22;9718;52.200;21.052;2022-08-21T01:19:18;20.30;99.90
19172;DHT22;9718;52.200;21.052;2022-08-21T01:21:46;20.10;99.90
19172;DHT22;9718;52.200;21.052;2022-08-21T01:24:13;20.00;99.90
19172;DHT22;9718;52.200;21.052;2022-08-21T01:26:41;19.90;99.90
19172;DHT22;9718;52.200;21.052;2022-08-21T01:31:42;19.80;99.90
19172;DHT22;9718;52.200;21.052;2022-08-21T01:34:10;19.80;99.90
19172;DHT22;9718;52.200;21.052;2022-08-21T01:36:37;19.80;99.90
19172;DHT22;9718;52.200;21.052;2022-08-21T01:39:05;19.80;99.90
19172;DHT22;9718;52.200;21.052;2022-08-21T01:41:33;19.90;99.90
19172;DHT22;9718;52.200;21.052;2022-08-21T01:44:00;19.90;99.90
19172;DHT22;9718;52.200;21.052;2022-08-21T01:46:27;19.90;99.90
19172;DHT22;9718;52.200;21.052;2022-08-21T01:48:54;19.90;99.90
19172;DHT22;9718;52.200;21.052;2022-08-21T01:51:21;19.90;99.90
19172;DHT22;9718;52.200;21.052;2022-08-21T01:53:48;19.90;99.90
19172;DHT22;9718;52.200;21.052;2022-08-21T01:56:16;19.90;99.90
19172;DHT22;9718;52.200;21.052;2022-08-21T01:58:45;19.90;99.90
19172;DHT22;9718;52.200;21.052;2022-08-21T02:01:13;20.00;99.90
19172;DHT22;9718;52.200;21.052;2022-08-21T02:03:41;19.90;99.90
19172;DHT22;9718;52.200;21.052;2022-08-21T02:06:14;19.90;99.90
19172;DHT22;9718;52.200;21.052;2022-08-21T02:08:41;19.70;99.90
19172;DHT22;9718;52.200;21.052;2022-08-21T02:11:08;19.50;99.90
19172;DHT22;9718;52.200;21.052;2022-08-21T02:13:35;19.40;99.90
19172;DHT22;9718;52.200;21.052;2022-08-21T02:16:03;19.30;99.90
19172;DHT22;9718;52.200;21.052;2022-08-21T02:18:30;19.20;99.90
19172;DHT22;9718;52.200;21.052;2022-08-21T02:20:57;19.10;99.90
19172;DHT22;9718;52.200;21.052;2022-08-21T02:23:24;19.10;99.90
19172;DHT22;9718;52.200;21.052;2022-08-21T02:26:04;19.10;99.90
19172;DHT22;9718;52.200;21.052;2022-08-21T02:28:32;19.10;99.90
19172;DHT22;9718;52.200;21.052;2022-08-21T02:31:00;18.90;99.90
19172;DHT22;9718;52.200;21.052;2022-08-21T02:33:28;18.90;99.90
19172;DHT22;9718;52.200;21.052;2022-08-21T02:35:56;18.90;99.90
19172;DHT22;9718;52.200;21.052;2022-08-21T02:38:28;18.90;99.90
19172;DHT22;9718;52.200;21.052;2022-08-21T02:40:56;19.00;99.90
19172;DHT22;9718;52.200;21.052;2022-08-21T02:43:26;19.00;99.90
19172;DHT22;9718;52.200;21.052;2022-08-21T02:45:55;19.00;99.90
19172;DHT22;9718;52.200;21.052;2022-08-21T02:48:25;19.00;99.90
19172;DHT22;9718;52.200;21.052;2022-08-21T02:51:03;19.10;99.90
19172;DHT22;9718;52.200;21.052;2022-08-21T02:53:32;19.10;99.90
19172;DHT22;9718;52.200;21.052;2022-08-21T02:56:01;19.00;99.90
19172;DHT22;9718;52.200;21.052;2022-08-21T02:58:31;18.90;99.90
19172;DHT22;9718;52.200;21.052;2022-08-21T03:00:59;18.80;99.90
19172;DHT22;9718;52.200;21.052;2022-08-21T03:03:27;18.80;99.90
19172;DHT22;9718;52.200;21.052;2022-08-21T03:05:56;18.80;99.90
19172;DHT22;9718;52.200;21.052;2022-08-21T03:08:23;18.70;99.90
19172;DHT22;9718;52.200;21.052;2022-08-21T03:10:53;18.70;99.90
19172;DHT22;9718;52.200;21.052;2022-08-21T03:13:20;18.70;99.90
19172;DHT22;9718;52.200;21.052;2022-08-21T03:15:49;18.70;99.90
19172;DHT22;9718;52.200;21.052;2022-08-21T03:18:16;18.70;99.90
19172;DHT22;9718;52.200;21.052;2022-08-21T03:20:44;18.60;99.90
19172;DHT22;9718;52.200;21.052;2022-08-21T03:23:16;18.60;99.90
19172;DHT22;9718;52.200;21.052;2022-08-21T03:25:46;18.50;99.90
19172;DHT22;9718;52.200;21.052;2022-08-21T03:28:17;18.50;99.90
19172;DHT22;9718;52.200;21.052;2022-08-21T03:30:48;18.50;99.90
19172;DHT22;9718;52.200;21.052;2022-08-21T03:33:16;18.50;99.90
19172;DHT22;9718;52.200;21.052;2022-08-21T03:35:55;18.50;99.90
19172;DHT22;9718;52.200;21.052;2022-08-21T03:38:23;18.50;99.90
19172;DHT22;9718;52.200;21.052;2022-08-21T03:40:52;18.50;99.90
19172;DHT22;9718;52.200;21.052;2022-08-21T03:43:20;18.60;99.90
19172;DHT22;9718;52.200;21.052;2022-08-21T03:45:48;18.60;99.90
19172;DHT22;9718;52.200;21.052;2022-08-21T03:48:19;18.60;99.90
19172;DHT22;9718;52.200;21.052;2022-08-21T03:50:46;18.70;99.90
19172;DHT22;9718;52.200;21.052;2022-08-21T03:53:16;18.70;99.90
19172;DHT22;9718;52.200;21.052;2022-08-21T03:55:45;18.70;99.90
19172;DHT22;9718;52.200;21.052;2022-08-21T03:58:15;18.80;99.90
19172;DHT22;9718;52.200;21.052;2022-08-21T04:00:45;18.90;99.90
19172;DHT22;9718;52.200;21.052;2022-08-21T04:03:12;18.90;99.90
19172;DHT22;9718;52.200;21.052;2022-08-21T04:05:39;18.90;99.90
19172;DHT22;9718;52.200;21.052;2022-08-21T04:08:07;18.90;99.90
19172;DHT22;9718;52.200;21.052;2022-08-21T04:10:37;19.00;99.90
19172;DHT22;9718;52.200;21.052;2022-08-21T04:13:06;19.00;99.90
19172;DHT22;9718;52.200;21.052;2022-08-21T04:15:34;19.10;99.90
19172;DHT22;9718;52.200;21.052;2022-08-21T04:18:02;19.10;99.90
19172;DHT22;9718;52.200;21.052;2022-08-21T04:20:30;19.10;99.90
19172;DHT22;9718;52.200;21.052;2022-08-21T04:22:57;19.10;99.90
19172;DHT22;9718;52.200;21.052;2022-08-21T04:25:24;19.20;99.90
19172;DHT22;9718;52.200;21.052;2022-08-21T04:27:54;19.20;99.90
19172;DHT22;9718;52.200;21.052;2022-08-21T04:30:22;19.30;99.90
19172;DHT22;9718;52.200;21.052;2022-08-21T04:32:56;19.30;99.90
19172;DHT22;9718;52.200;21.052;2022-08-21T04:35:26;19.40;99.90
19172;DHT22;9718;52.200;21.052;2022-08-21T04:37:53;19.50;99.90
19172;DHT22;9718;52.200;21.052;2022-08-21T04:40:23;19.60;99.90
19172;DHT22;9718;52.200;21.052;2022-08-21T04:42:53;19.60;99.90
19172;DHT22;9718;52.200;21.052;2022-08-21T04:45:23;19.70;99.90
19172;DHT22;9718;52.200;21.052;2022-08-21T04:47:55;19.80;99.90
19172;DHT22;9718;52.200;21.052;2022-08-21T04:50:36;19.90;99.90
19172;DHT22;9718;52.200;21.052;2022-08-21T04:53:07;19.90;99.90
19172;DHT22;9718;52.200;21.052;2022-08-21T04:55:35;19.90;99.90
19172;DHT22;9718;52.200;21.052;2022-08-21T04:58:05;20.00;99.90
19172;DHT22;9718;52.200;21.052;2022-08-21T05:00:34;20.20;99.90
19172;DHT22;9718;52.200;21.052;2022-08-21T05:03:02;20.20;99.90
19172;DHT22;9718;52.200;21.052;2022-08-21T05:05:31;20.30;99.90
19172;DHT22;9718;52.200;21.052;2022-08-21T05:08:01;20.40;99.90
19172;DHT22;9718;52.200;21.052;2022-08-21T05:10:29;20.60;99.90
19172;DHT22;9718;52.200;21.052;2022-08-21T05:12:58;20.60;99.90
19172;DHT22;9718;52.200;21.052;2022-08-21T05:15:27;20.80;99.90
19172;DHT22;9718;52.200;21.052;2022-08-21T05:17:54;20.90;99.90
19172;DHT22;9718;52.200;21.052;2022-08-21T05:20:27;20.90;99.90
19172;DHT22;9718;52.200;21.052;2022-08-21T05:22:56;21.00;99.90
19172;DHT22;9718;52.200;21.052;2022-08-21T05:25:23;21.10;99.90
19172;DHT22;9718;52.200;21.052;2022-08-21T05:27:50;21.20;99.90
19172;DHT22;9718;52.200;21.052;2022-08-21T05:30:19;21.30;99.90
19172;DHT22;9718;52.200;21.052;2022-08-21T05:32:47;21.30;99.90
19172;DHT22;9718;52.200;21.052;2022-08-21T05:35:14;21.40;99.90
19172;DHT22;9718;52.200;21.052;2022-08-21T05:37:41;21.40;99.90
19172;DHT22;9718;52.200;21.052;2022-08-21T05:40:09;21.50;99.90
19172;DHT22;9718;52.200;21.052;2022-08-21T05:42:53;21.50;99.90
19172;DHT22;9718;52.200;21.052;2022-08-21T05:45:23;21.70;99.90
19172;DHT22;9718;52.200;21.052;2022-08-21T05:48:17;21.70;99.90
19172;DHT22;9718;52.200;21.052;2022-08-21T05:50:46;21.70;99.90
19172;DHT22;9718;52.200;21.052;2022-08-21T05:53:15;21.80;99.90
19172;DHT22;9718;52.200;21.052;2022-08-21T05:55:43;21.90;99.90
19172;DHT22;9718;52.200;21.052;2022-08-21T05:58:19;22.10;99.90
19172;DHT22;9718;52.200;21.052;2022-08-21T06:00:48;22.20;99.90
19172;DHT22;9718;52.200;21.052;2022-08-21T06:03:22;22.20;99.90
19172;DHT22;9718;52.200;21.052;2022-08-21T06:05:49;22.20;99.90
19172;DHT22;9718;52.200;21.052;2022-08-21T06:08:17;22.10;99.90
19172;DHT22;9718;52.200;21.052;2022-08-21T06:10:45;22.20;99.90
19172;DHT22;9718;52.200;21.052;2022-08-21T06:13:14;22.40;99.90
19172;DHT22;9718;52.200;21.052;2022-08-21T06:15:41;22.50;99.90
19172;DHT22;9718;52.200;21.052;2022-08-21T06:18:09;22.60;99.90
19172;DHT22;9718;52.200;21.052;2022-08-21T06:20:36;22.80;99.90
19172;DHT22;9718;52.200;21.052;2022-08-21T06:23:04;22.80;99.90
19172;DHT22;9718;52.200;21.052;2022-08-21T06:25:31;23.00;99.90
19172;DHT22;9718;52.200;21.052;2022-08-21T06:28:05;23.20;99.90
19172;DHT22;9718;52.200;21.052;2022-08-21T06:30:33;23.20;99.90
19172;DHT22;9718;52.200;21.052;2022-08-21T06:33:00;23.20;99.90
19172;DHT22;9718;52.200;21.052;2022-08-21T06:35:29;23.30;99.90
19172;DHT22;9718;52.200;21.052;2022-08-21T06:37:56;23.50;99.90
19172;DHT22;9718;52.200;21.052;2022-08-21T06:40:25;23.60;99.90
19172;DHT22;9718;52.200;21.052;2022-08-21T06:42:56;23.90;99.90
19172;DHT22;9718;52.200;21.052;2022-08-21T06:45:24;24.10;99.90
19172;DHT22;9718;52.200;21.052;2022-08-21T06:47:55;24.10;99.90
19172;DHT22;9718;52.200;21.052;2022-08-21T06:50:22;24.30;99.90
19172;DHT22;9718;52.200;21.052;2022-08-21T06:52:49;24.40;99.90
19172;DHT22;9718;52.200;21.052;2022-08-21T06:55:24;24.40;99.90
19172;DHT22;9718;52.200;21.052;2022-08-21T06:57:55;24.40;99.90
19172;DHT22;9718;52.200;21.052;2022-08-21T07:00:21;24.30;99.90
19172;DHT22;9718;52.200;21.052;2022-08-21T07:02:49;24.30;99.90
19172;DHT22;9718;52.200;21.052;2022-08-21T07:05:17;24.30;99.90
19172;DHT22;9718;52.200;21.052;2022-08-21T07:07:45;24.40;99.90
19172;DHT22;9718;52.200;21.052;2022-08-21T07:10:14;24.40;99.90
19172;DHT22;9718;52.200;21.052;2022-08-21T07:12:49;24.30;99.90
19172;DHT22;9718;52.200;21.052;2022-08-21T07:15:28;24.40;99.90
19172;DHT22;9718;52.200;21.052;2022-08-21T07:17:57;24.50;99.90
19172;DHT22;9718;52.200;21.052;2022-08-21T07:20:26;24.50;99.90
19172;DHT22;9718;52.200;21.052;2022-08-21T07:22:54;24.70;99.90
19172;DHT22;9718;52.200;21.052;2022-08-21T07:25:21;24.90;99.90
19172;DHT22;9718;52.200;21.052;2022-08-21T07:27:48;25.10;99.90
19172;DHT22;9718;52.200;21.052;2022-08-21T07:30:16;25.30;99.90
19172;DHT22;9718;52.200;21.052;2022-08-21T07:32:43;25.60;99.90
19172;DHT22;9718;52.200;21.052;2022-08-21T07:35:10;25.90;99.90
19172;DHT22;9718;52.200;21.052;2022-08-21T07:37:38;26.00;99.90
19172;DHT22;9718;52.200;21.052;2022-08-21T07:40:05;26.00;99.90
19172;DHT22;9718;52.200;21.052;2022-08-21T07:42:32;26.00;99.90
19172;DHT22;9718;52.200;21.052;2022-08-21T07:44:59;26.00;99.90
19172;DHT22;9718;52.200;21.052;2022-08-21T07:47:26;26.20;99.90
19172;DHT22;9718;52.200;21.052;2022-08-21T07:50:13;26.20;99.90
19172;DHT22;9718;52.200;21.052;2022-08-21T07:52:41;26.00;99.90
19172;DHT22;9718;52.200;21.052;2022-08-21T07:55:17;26.20;99.90
19172;DHT22;9718;52.200;21.052;2022-08-21T07:57:45;26.30;99.90
19172;DHT22;9718;52.200;21.052;2022-08-21T08:00:15;26.50;99.90
19172;DHT22;9718;52.200;21.052;2022-08-21T08:02:45;26.70;99.90
19172;DHT22;9718;52.200;21.052;2022-08-21T08:05:13;26.60;99.90
19172;DHT22;9718;52.200;21.052;2022-08-21T08:07:40;26.50;99.90
19172;DHT22;9718;52.200;21.052;2022-08-21T08:10:08;26.60;99.90
19172;DHT22;9718;52.200;21.052;2022-08-21T08:12:42;26.90;99.90
19172;DHT22;9718;52.200;21.052;2022-08-21T08:15:12;27.10;99.90
19172;DHT22;9718;52.200;21.052;2022-08-21T08:17:41;27.10;99.90
19172;DHT22;9718;52.200;21.052;2022-08-21T08:20:10;27.30;99.90
19172;DHT22;9718;52.200;21.052;2022-08-21T08:22:38;27.50;99.90
19172;DHT22;9718;52.200;21.052;2022-08-21T08:25:07;27.70;99.90
19172;DHT22;9718;52.200;21.052;2022-08-21T08:27:35;27.80;99.90
19172;DHT22;9718;52.200;21.052;2022-08-21T08:30:04;27.90;99.90
19172;DHT22;9718;52.200;21.052;2022-08-21T08:32:32;28.00;99.90
19172;DHT22;9718;52.200;21.052;2022-08-21T08:35:00;27.70;99.90
19172;DHT22;9718;52.200;21.052;2022-08-21T08:37:27;27.70;99.90
19172;DHT22;9718;52.200;21.052;2022-08-21T08:40:00;27.70;99.90
19172;DHT22;9718;52.200;21.052;2022-08-21T08:42:33;27.50;99.90
19172;DHT22;9718;52.200;21.052;2022-08-21T08:45:11;27.70;99.90
19172;DHT22;9718;52.200;21.052;2022-08-21T08:47:42;27.80;99.90
19172;DHT22;9718;52.200;21.052;2022-08-21T08:53:30;28.00;99.90
19172;DHT22;9718;52.200;21.052;2022-08-21T08:56:00;27.90;99.90
19172;DHT22;9718;52.200;21.052;2022-08-21T08:58:34;27.60;99.90
19172;DHT22;9718;52.200;21.052;2022-08-21T09:01:06;27.30;99.90
19172;DHT22;9718;52.200;21.052;2022-08-21T09:03:39;27.40;99.90
19172;DHT22;9718;52.200;21.052;2022-08-21T09:09:15;27.70;99.90
19172;DHT22;9718;52.200;21.052;2022-08-21T09:19:44;28.30;99.90
19172;DHT22;9718;52.200;21.052;2022-08-21T09:22:28;28.60;99.90
19172;DHT22;9718;52.200;21.052;2022-08-21T09:25:21;28.00;99.90
19172;DHT22;9718;52.200;21.052;2022-08-21T09:27:50;27.60;99.90
19172;DHT22;9718;52.200;21.052;2022-08-21T09:30:19;27.60;99.90
19172;DHT22;9718;52.200;21.052;2022-08-21T09:32:50;28.10;99.90
19172;DHT22;9718;52.200;21.052;2022-08-21T09:35:20;28.40;99.90
19172;DHT22;9718;52.200;21.052;2022-08-21T09:38:00;28.80;99.90
19172;DHT22;9718;52.200;21.052;2022-08-21T09:40:43;29.00;99.90
19172;DHT22;9718;52.200;21.052;2022-08-21T09:45:39;29.10;99.90
19172;DHT22;9718;52.200;21.052;2022-08-21T09:48:23;28.40;99.90
19172;DHT22;9718;52.200;21.052;2022-08-21T09:50:53;27.20;99.90
19172;DHT22;9718;52.200;21.052;2022-08-21T09:53:32;27.00;99.90
19172;DHT22;9718;52.200;21.052;2022-08-21T09:56:05;27.10;99.90
19172;DHT22;9718;52.200;21.052;2022-08-21T09:59:12;27.20;99.90
19172;DHT22;9718;52.200;21.052;2022-08-21T10:01:50;27.20;99.90
19172;DHT22;9718;52.200;21.052;2022-08-21T10:04:29;27.40;99.90
19172;DHT22;9718;52.200;21.052;2022-08-21T10:07:10;27.70;99.90
19172;DHT22;9718;52.200;21.052;2022-08-21T10:09:37;28.00;99.90
19172;DHT22;9718;52.200;21.052;2022-08-21T10:12:25;28.30;99.90
19172;DHT22;9718;52.200;21.052;2022-08-21T10:17:58;28.40;99.90
19172;DHT22;9718;52.200;21.052;2022-08-21T10:23:30;28.10;99.90
19172;DHT22;9718;52.200;21.052;2022-08-21T10:31:47;27.50;99.90
19172;DHT22;9718;52.200;21.052;2022-08-21T10:40:09;26.80;99.90
19172;DHT22;9718;52.200;21.052;2022-08-21T10:45:48;26.60;99.90
19172;DHT22;9718;52.200;21.052;2022-08-21T10:48:47;26.60;99.90
19172;DHT22;9718;52.200;21.052;2022-08-21T10:51:40;26.50;99.90
19172;DHT22;9718;52.200;21.052;2022-08-21T10:56:51;26.50;99.90
19172;DHT22;9718;52.200;21.052;2022-08-21T10:59:31;26.60;99.90
19172;DHT22;9718;52.200;21.052;2022-08-21T11:07:33;26.50;99.90
19172;DHT22;9718;52.200;21.052;2022-08-21T11:10:12;26.50;99.90
19172;DHT22;9718;52.200;21.052;2022-08-21T11:12:59;26.50;99.90
19172;DHT22;9718;52.200;21.052;2022-08-21T11:15:43;26.40;99.90
19172;DHT22;9718;52.200;21.052;2022-08-21T11:23:52;26.60;99.90
19172;DHT22;9718;52.200;21.052;2022-08-21T11:26:32;26.60;99.90
19172;DHT22;9718;52.200;21.052;2022-08-21T11:29:28;26.90;99.90
19172;DHT22;9718;52.200;21.052;2022-08-21T11:40:15;27.80;99.90
19172;DHT22;9718;52.200;21.052;2022-08-21T11:45:22;27.90;99.90
19172;DHT22;9718;52.200;21.052;2022-08-21T11:50:30;28.40;99.90
19172;DHT22;9718;52.200;21.052;2022-08-21T11:55:34;29.20;99.90
19172;DHT22;9718;52.200;21.052;2022-08-21T11:58:11;29.60;99.90
19172;DHT22;9718;52.200;21.052;2022-08-21T12:00:56;29.80;99.90
19172;DHT22;9718;52.200;21.052;2022-08-21T12:03:33;29.90;99.90
19172;DHT22;9718;52.200;21.052;2022-08-21T12:06:05;30.30;99.90
19172;DHT22;9718;52.200;21.052;2022-08-21T12:08:38;30.30;99.90
19172;DHT22;9718;52.200;21.052;2022-08-21T12:11:26;30.20;99.90
19172;DHT22;9718;52.200;21.052;2022-08-21T12:16:37;29.40;99.90
19172;DHT22;9718;52.200;21.052;2022-08-21T12:30:06;30.70;99.90
19172;DHT22;9718;52.200;21.052;2022-08-21T12:32:46;30.80;99.90
19172;DHT22;9718;52.200;21.052;2022-08-21T12:35:24;30.40;99.90
19172;DHT22;9718;52.200;21.052;2022-08-21T12:40:41;29.70;99.90
19172;DHT22;9718;52.200;21.052;2022-08-21T12:43:20;29.50;99.90
19172;DHT22;9718;52.200;21.052;2022-08-21T12:45:50;29.10;99.90
19172;DHT22;9718;52.200;21.052;2022-08-21T12:48:22;29.10;99.90
19172;DHT22;9718;52.200;21.052;2022-08-21T12:55:56;28.90;99.90
19172;DHT22;9718;52.200;21.052;2022-08-21T12:58:28;28.90;99.90
19172;DHT22;9718;52.200;21.052;2022-08-21T13:01:05;29.10;99.90
19172;DHT22;9718;52.200;21.052;2022-08-21T13:03:37;29.30;99.90
19172;DHT22;9718;52.200;21.052;2022-08-21T13:06:05;29.70;99.90
19172;DHT22;9718;52.200;21.052;2022-08-21T13:08:35;30.00;99.90
19172;DHT22;9718;52.200;21.052;2022-08-21T13:11:09;30.30;99.90
19172;DHT22;9718;52.200;21.052;2022-08-21T13:13:42;30.20;99.90
19172;DHT22;9718;52.200;21.052;2022-08-21T13:16:27;29.80;99.90
19172;DHT22;9718;52.200;21.052;2022-08-21T13:19:00;29.50;99.90
19172;DHT22;9718;52.200;21.052;2022-08-21T13:21:33;29.50;99.90
19172;DHT22;9718;52.200;21.052;2022-08-21T13:27:20;29.70;99.90
19172;DHT22;9718;52.200;21.052;2022-08-21T13:29:48;29.60;99.90
19172;DHT22;9718;52.200;21.052;2022-08-21T13:32:23;29.50;99.90
19172;DHT22;9718;52.200;21.052;2022-08-21T13:34:52;29.30;99.90
19172;DHT22;9718;52.200;21.052;2022-08-21T13:37:21;29.00;99.90
19172;DHT22;9718;52.200;21.052;2022-08-21T13:39:52;28.50;99.90
19172;DHT22;9718;52.200;21.052;2022-08-21T13:42:19;28.10;99.90
19172;DHT22;9718;52.200;21.052;2022-08-21T13:44:47;27.90;99.90
19172;DHT22;9718;52.200;21.052;2022-08-21T13:47:16;27.70;99.90
19172;DHT22;9718;52.200;21.052;2022-08-21T13:49:47;27.70;99.90
19172;DHT22;9718;52.200;21.052;2022-08-21T13:55:00;27.60;99.90
19172;DHT22;9718;52.200;21.052;2022-08-21T13:57:35;27.50;99.90
19172;DHT22;9718;52.200;21.052;2022-08-21T14:00:27;27.50;99.90
19172;DHT22;9718;52.200;21.052;2022-08-21T14:03:07;27.50;99.90
19172;DHT22;9718;52.200;21.052;2022-08-21T14:05:38;27.60;99.90
19172;DHT22;9718;52.200;21.052;2022-08-21T14:08:20;27.70;99.90
19172;DHT22;9718;52.200;21.052;2022-08-21T14:10:57;27.90;99.90
19172;DHT22;9718;52.200;21.052;2022-08-21T14:16:23;28.50;99.90
19172;DHT22;9718;52.200;21.052;2022-08-21T14:19:07;28.70;99.90
19172;DHT22;9718;52.200;21.052;2022-08-21T14:21:37;28.50;99.90
19172;DHT22;9718;52.200;21.052;2022-08-21T14:24:09;28.20;99.90
19172;DHT22;9718;52.200;21.052;2022-08-21T14:27:01;28.10;99.90
19172;DHT22;9718;52.200;21.052;2022-08-21T14:29:34;28.20;99.90
19172;DHT22;9718;52.200;21.052;2022-08-21T14:32:28;28.30;99.90
19172;DHT22;9718;52.200;21.052;2022-08-21T14:34:58;28.00;99.90
19172;DHT22;9718;52.200;21.052;2022-08-21T14:37:25;27.90;99.90
19172;DHT22;9718;52.200;21.052;2022-08-21T14:39:53;28.20;99.90
19172;DHT22;9718;52.200;21.052;2022-08-21T14:42:20;28.40;99.90
19172;DHT22;9718;52.200;21.052;2022-08-21T14:44:47;28.60;99.90
19172;DHT22;9718;52.200;21.052;2022-08-21T14:47:14;28.60;99.90
19172;DHT22;9718;52.200;21.052;2022-08-21T14:49:41;28.60;99.90
19172;DHT22;9718;52.200;21.052;2022-08-21T14:52:11;28.50;99.90
19172;DHT22;9718;52.200;21.052;2022-08-21T14:54:38;28.50;99.90
19172;DHT22;9718;52.200;21.052;2022-08-21T14:57:08;28.40;99.90
19172;DHT22;9718;52.200;21.052;2022-08-21T14:59:37;28.40;99.90
19172;DHT22;9718;52.200;21.052;2022-08-21T15:02:05;28.30;99.90
19172;DHT22;9718;52.200;21.052;2022-08-21T15:04:33;28.30;99.90
19172;DHT22;9718;52.200;21.052;2022-08-21T15:07:01;28.20;99.90
19172;DHT22;9718;52.200;21.052;2022-08-21T15:09:28;28.10;99.90
19172;DHT22;9718;52.200;21.052;2022-08-21T15:11:57;28.00;99.90
19172;DHT22;9718;52.200;21.052;2022-08-21T15:14:27;27.90;99.90
19172;DHT22;9718;52.200;21.052;2022-08-21T15:16:54;27.70;99.90
19172;DHT22;9718;52.200;21.052;2022-08-21T15:19:22;27.70;99.90
19172;DHT22;9718;52.200;21.052;2022-08-21T15:21:49;27.80;99.90
19172;DHT22;9718;52.200;21.052;2022-08-21T15:24:16;27.70;99.90
19172;DHT22;9718;52.200;21.052;2022-08-21T15:26:43;27.60;99.90
19172;DHT22;9718;52.200;21.052;2022-08-21T15:29:12;27.70;99.90
19172;DHT22;9718;52.200;21.052;2022-08-21T15:31:57;27.70;99.90
19172;DHT22;9718;52.200;21.052;2022-08-21T15:34:27;27.70;99.90
19172;DHT22;9718;52.200;21.052;2022-08-21T15:36:56;27.60;99.90
19172;DHT22;9718;52.200;21.052;2022-08-21T15:39:25;27.50;99.90
19172;DHT22;9718;52.200;21.052;2022-08-21T15:41:58;27.50;99.90
19172;DHT22;9718;52.200;21.052;2022-08-21T15:44:37;27.30;99.90
19172;DHT22;9718;52.200;21.052;2022-08-21T15:47:09;27.20;99.90
19172;DHT22;9718;52.200;21.052;2022-08-21T15:49:37;27.10;99.90
19172;DHT22;9718;52.200;21.052;2022-08-21T15:52:04;27.00;99.90
19172;DHT22;9718;52.200;21.052;2022-08-21T15:54:32;27.00;99.90
19172;DHT22;9718;52.200;21.052;2022-08-21T15:56:59;26.70;99.90
19172;DHT22;9718;52.200;21.052;2022-08-21T15:59:26;26.60;99.90
19172;DHT22;9718;52.200;21.052;2022-08-21T16:01:53;26.40;99.90
19172;DHT22;9718;52.200;21.052;2022-08-21T16:04:26;26.30;99.90
19172;DHT22;9718;52.200;21.052;2022-08-21T16:06:56;26.10;99.90
19172;DHT22;9718;52.200;21.052;2022-08-21T16:09:32;26.10;99.90
19172;DHT22;9718;52.200;21.052;2022-08-21T16:12:00;26.10;99.90
19172;DHT22;9718;52.200;21.052;2022-08-21T16:14:30;26.10;99.90
19172;DHT22;9718;52.200;21.052;2022-08-21T16:16:57;25.90;99.90
19172;DHT22;9718;52.200;21.052;2022-08-21T16:19:27;25.90;99.90
19172;DHT22;9718;52.200;21.052;2022-08-21T16:21:54;25.80;99.90
19172;DHT22;9718;52.200;21.052;2022-08-21T16:24:21;25.80;99.90
19172;DHT22;9718;52.200;21.052;2022-08-21T16:26:49;25.90;99.90
19172;DHT22;9718;52.200;21.052;2022-08-21T16:29:28;25.80;99.90
19172;DHT22;9718;52.200;21.052;2022-08-21T16:31:56;25.70;99.90
19172;DHT22;9718;52.200;21.052;2022-08-21T16:34:23;25.70;99.90
19172;DHT22;9718;52.200;21.052;2022-08-21T16:36:50;25.60;99.90
19172;DHT22;9718;52.200;21.052;2022-08-21T16:39:18;25.50;99.90
19172;DHT22;9718;52.200;21.052;2022-08-21T16:41:47;25.40;99.90
19172;DHT22;9718;52.200;21.052;2022-08-21T16:44:18;25.40;99.90
19172;DHT22;9718;52.200;21.052;2022-08-21T16:46:45;25.30;99.90
19172;DHT22;9718;52.200;21.052;2022-08-21T16:49:12;25.30;99.90
19172;DHT22;9718;52.200;21.052;2022-08-21T16:51:39;25.20;99.90
19172;DHT22;9718;52.200;21.052;2022-08-21T16:54:06;25.20;99.90
19172;DHT22;9718;52.200;21.052;2022-08-21T16:56:33;25.10;99.90
19172;DHT22;9718;52.200;21.052;2022-08-21T16:59:05;25.10;99.90
19172;DHT22;9718;52.200;21.052;2022-08-21T17:01:33;25.10;99.90
19172;DHT22;9718;52.200;21.052;2022-08-21T17:04:02;25.00;99.90
19172;DHT22;9718;52.200;21.052;2022-08-21T17:06:29;25.00;99.90
19172;DHT22;9718;52.200;21.052;2022-08-21T17:08:58;25.00;99.90
19172;DHT22;9718;52.200;21.052;2022-08-21T17:14:24;24.80;99.90
19172;DHT22;9718;52.200;21.052;2022-08-21T17:16:53;24.80;99.90
19172;DHT22;9718;52.200;21.052;2022-08-21T17:19:25;24.70;99.90
19172;DHT22;9718;52.200;21.052;2022-08-21T17:21:52;24.60;99.90
19172;DHT22;9718;52.200;21.052;2022-08-21T17:24:19;24.60;99.90
19172;DHT22;9718;52.200;21.052;2022-08-21T17:26:47;24.50;99.90
19172;DHT22;9718;52.200;21.052;2022-08-21T17:29:26;24.50;99.90
19172;DHT22;9718;52.200;21.052;2022-08-21T17:31:54;24.40;99.90
19172;DHT22;9718;52.200;21.052;2022-08-21T17:34:22;24.30;99.90
19172;DHT22;9718;52.200;21.052;2022-08-21T17:36:56;24.20;99.90